Terminal Aerodrome Forecast
Issued by NWS Omaha/Valley, NE

Home | Current Version | Previous Version | Graphics & Text | Print | Product List | Glossary On
Versions: 1 2 3 4 5 6 7 8 9 10 11 12 13 14 15 16 17 18
000
FTUS43 KOAX 272320
TAFOFK
TAF
KOFK 272320Z 2800/2824 01006KT P6SM BKN250
      TEMPO 2802/2804 VRB10G20KT -SHRA BKN100
     FM281800 02008KT P6SM SCT250=

USA.gov is the U.S. government's official web portal to all federal, state and local government web resources and services.